createdAt,value
2022-08-08T00:00:55.784Z,18.90
2022-08-08T00:02:33.275Z,18.90
2022-08-08T00:05:10.363Z,18.80
2022-08-08T00:07:49.505Z,18.80
2022-08-08T00:10:28.411Z,18.80
2022-08-08T00:13:05.993Z,18.80
2022-08-08T00:15:57.131Z,18.80
2022-08-08T00:18:31.302Z,18.80
2022-08-08T00:21:05.229Z,18.80
2022-08-08T00:23:47.490Z,18.80
2022-08-08T00:26:29.067Z,18.60
2022-08-08T00:29:03.853Z,18.50
2022-08-08T00:32:15.496Z,18.40
2022-08-08T00:35:03.899Z,18.40
2022-08-08T00:37:48.248Z,18.40
2022-08-08T00:41:14.431Z,18.20
2022-08-08T00:44:01.258Z,18.30
2022-08-08T00:46:58.898Z,18.20
2022-08-08T00:50:09.276Z,18.30
2022-08-08T00:52:54.534Z,18.30
2022-08-08T00:55:59.242Z,18.00
2022-08-08T00:59:08.187Z,18.00
2022-08-08T01:01:50.768Z,18.10
2022-08-08T01:04:51.348Z,18.20
2022-08-08T01:07:57.358Z,18.20
2022-08-08T01:10:59.093Z,18.10
2022-08-08T01:13:58.399Z,18.00
2022-08-08T01:17:04.742Z,18.00
2022-08-08T01:20:15.482Z,17.70
2022-08-08T01:24:05.797Z,17.70
2022-08-08T01:26:39.646Z,17.50
2022-08-08T01:29:59.666Z,17.40
2022-08-08T01:33:23.809Z,17.30
2022-08-08T01:36:28.146Z,17.20
2022-08-08T01:39:09.555Z,17.10
2022-08-08T01:41:58.487Z,17.20
2022-08-08T01:44:41.264Z,17.10
2022-08-08T01:48:03.673Z,17.10
2022-08-08T01:50:20.971Z,17.10
2022-08-08T01:55:15.628Z,17.00
2022-08-08T01:56:29.239Z,17.00
2022-08-08T01:58:58.457Z,16.90
2022-08-08T02:01:55.029Z,16.80
2022-08-08T02:04:35.841Z,16.70
2022-08-08T02:07:07.141Z,16.90
2022-08-08T02:10:02.106Z,16.90
2022-08-08T02:12:42.669Z,16.80
2022-08-08T02:15:17.116Z,16.90
2022-08-08T02:17:51.623Z,16.80
2022-08-08T02:21:03.134Z,16.70
2022-08-08T02:23:23.128Z,16.70
2022-08-08T02:26:08.199Z,16.70
2022-08-08T02:28:51.902Z,16.70
2022-08-08T02:31:58.224Z,16.70
2022-08-08T02:35:08.596Z,16.50
2022-08-08T02:37:52.279Z,16.50
2022-08-08T02:40:39.025Z,16.50
2022-08-08T02:44:38.508Z,16.40
2022-08-08T02:46:45.502Z,16.40
2022-08-08T02:49:50.960Z,16.40
2022-08-08T02:52:50.766Z,16.30
2022-08-08T02:55:59.926Z,16.30
2022-08-08T02:59:26.094Z,16.20
2022-08-08T03:02:33.355Z,16.10
2022-08-08T03:05:32.816Z,16.30
2022-08-08T03:09:01.159Z,16.10
2022-08-08T03:12:13.986Z,16.10
2022-08-08T03:15:59.223Z,16.00
2022-08-08T03:17:59.648Z,16.00
2022-08-08T03:20:47.108Z,16.10
2022-08-08T03:23:21.287Z,16.00
2022-08-08T03:25:50.901Z,16.10
2022-08-08T03:28:22.312Z,16.00
2022-08-08T03:31:22.226Z,15.90
2022-08-08T03:33:54.591Z,15.70
2022-08-08T03:36:30.367Z,15.70
2022-08-08T03:39:14.470Z,15.80
2022-08-08T03:42:28.741Z,15.70
2022-08-08T03:44:34.849Z,15.70
2022-08-08T03:47:13.959Z,15.50
2022-08-08T03:50:00.308Z,15.40
2022-08-08T03:52:31.386Z,15.40
2022-08-08T03:55:10.115Z,15.50
2022-08-08T03:58:31.129Z,15.50
2022-08-08T04:00:30.541Z,15.40
2022-08-08T04:03:01.843Z,15.40
2022-08-08T04:05:35.208Z,15.40
2022-08-08T04:08:06.087Z,15.30
2022-08-08T04:10:36.710Z,15.20
2022-08-08T04:13:18.128Z,15.20
2022-08-08T04:16:03.760Z,15.30
2022-08-08T04:18:38.224Z,15.20
2022-08-08T04:21:10.194Z,15.30
2022-08-08T04:24:11.667Z,15.30
2022-08-08T04:26:27.249Z,15.20
2022-08-08T04:29:04.109Z,15.20
2022-08-08T04:31:58.959Z,15.00
2022-08-08T04:34:19.930Z,14.90
2022-08-08T04:36:47.977Z,15.00
2022-08-08T04:40:05.869Z,14.90
2022-08-08T04:42:05.605Z,14.90
2022-08-08T04:44:33.952Z,14.80
2022-08-08T04:47:01.971Z,15.00
2022-08-08T04:50:01.238Z,15.00
2022-08-08T04:52:18.696Z,15.00
2022-08-08T04:54:50.625Z,15.00
2022-08-08T04:57:20.063Z,15.00
2022-08-08T04:59:49.480Z,15.00
2022-08-08T05:02:20.131Z,15.00
2022-08-08T05:04:48.344Z,15.10
2022-08-08T05:07:16.403Z,15.10
2022-08-08T05:09:44.327Z,15.10
2022-08-08T05:12:20.626Z,15.30
2022-08-08T05:14:52.346Z,15.40
2022-08-08T05:17:21.634Z,15.40
2022-08-08T05:20:12.119Z,15.40
2022-08-08T05:22:37.669Z,15.40
2022-08-08T05:25:06.348Z,15.40
2022-08-08T05:27:41.781Z,15.40
2022-08-08T05:30:14.415Z,15.50
2022-08-08T05:32:43.040Z,15.50
2022-08-08T05:35:14.478Z,15.50
2022-08-08T05:37:52.013Z,15.50
2022-08-08T05:40:28.418Z,15.60
2022-08-08T05:43:03.285Z,15.70
2022-08-08T05:46:02.929Z,15.80
2022-08-08T05:48:32.979Z,15.90
2022-08-08T05:51:14.911Z,15.90
2022-08-08T05:54:24.350Z,16.10
2022-08-08T05:56:38.706Z,16.10
2022-08-08T05:59:59.838Z,16.20
2022-08-08T06:02:40.871Z,16.20
2022-08-08T06:05:34.671Z,16.30
2022-08-08T06:08:09.391Z,16.50
2022-08-08T06:10:50.334Z,16.70
2022-08-08T06:13:22.947Z,16.90
2022-08-08T06:15:54.858Z,17.00
2022-08-08T06:18:26.066Z,17.10
2022-08-08T06:20:57.176Z,17.30
2022-08-08T06:23:49.081Z,17.30
2022-08-08T06:26:38.577Z,17.30
2022-08-08T06:29:10.773Z,17.50
2022-08-08T06:32:10.211Z,17.60
2022-08-08T06:34:56.174Z,17.60
2022-08-08T06:37:38.162Z,17.70
2022-08-08T06:40:15.936Z,17.70
2022-08-08T06:42:53.673Z,17.70
2022-08-08T06:45:23.020Z,17.90
2022-08-08T06:47:52.410Z,18.00
2022-08-08T06:50:33.720Z,18.10
2022-08-08T06:53:10.027Z,18.10
2022-08-08T06:55:47.141Z,18.20
2022-08-08T06:58:21.333Z,18.20
2022-08-08T07:00:52.389Z,18.20
2022-08-08T07:03:51.920Z,18.30
2022-08-08T07:06:23.686Z,18.40
2022-08-08T07:08:58.988Z,18.40
2022-08-08T07:11:50.590Z,18.60
2022-08-08T07:14:22.349Z,18.70
2022-08-08T07:17:02.667Z,18.90
2022-08-08T07:19:39.039Z,19.00
2022-08-08T07:22:12.058Z,19.10
2022-08-08T07:24:52.949Z,19.30
2022-08-08T07:27:35.369Z,19.40
2022-08-08T07:30:16.822Z,19.60
2022-08-08T07:32:49.738Z,19.80
2022-08-08T07:35:18.213Z,20.00
2022-08-08T07:38:04.958Z,20.10
2022-08-08T07:40:39.924Z,20.20
2022-08-08T07:43:08.947Z,20.40
2022-08-08T07:45:59.764Z,20.60
2022-08-08T07:48:29.759Z,20.80
2022-08-08T07:51:00.937Z,21.00
2022-08-08T07:54:01.357Z,21.20
2022-08-08T07:56:35.397Z,21.40
2022-08-08T07:59:04.827Z,21.60
2022-08-08T08:02:36.536Z,21.80
2022-08-08T08:04:29.125Z,22.20
2022-08-08T08:07:00.770Z,22.80
2022-08-08T08:09:39.336Z,23.20
2022-08-08T08:12:08.154Z,23.90
2022-08-08T08:14:48.153Z,24.30
2022-08-08T08:17:21.085Z,24.90
2022-08-08T08:19:50.820Z,25.50
2022-08-08T08:22:25.456Z,26.00
2022-08-08T08:25:08.007Z,26.60
2022-08-08T08:27:36.275Z,27.00
2022-08-08T08:30:04.988Z,27.10
2022-08-08T08:32:36.652Z,27.60
2022-08-08T08:35:17.632Z,28.00
2022-08-08T08:38:15.016Z,28.00
2022-08-08T08:40:39.807Z,28.30
2022-08-08T08:43:17.133Z,28.60
2022-08-08T08:45:49.060Z,29.00
2022-08-08T08:48:19.858Z,29.20
2022-08-08T08:50:51.982Z,29.30
2022-08-08T08:53:27.432Z,29.70
2022-08-08T08:56:12.405Z,29.80
2022-08-08T08:58:43.357Z,30.10
2022-08-08T09:01:18.907Z,30.40
2022-08-08T09:03:51.454Z,30.30
2022-08-08T09:06:26.813Z,30.50
2022-08-08T09:09:04.225Z,30.60
2022-08-08T09:11:47.619Z,30.70
2022-08-08T09:14:25.967Z,31.00
2022-08-08T09:16:55.438Z,31.00
2022-08-08T09:22:01.477Z,31.30
2022-08-08T09:22:11.993Z,31.60
2022-08-08T09:24:42.713Z,31.80
2022-08-08T09:27:20.440Z,31.90
2022-08-08T09:29:53.580Z,32.10
2022-08-08T09:32:37.045Z,32.20
2022-08-08T09:35:08.924Z,32.40
2022-08-08T09:38:01.664Z,32.40
2022-08-08T09:40:47.719Z,32.10
2022-08-08T09:44:04.514Z,32.50
2022-08-08T09:46:25.230Z,32.80
2022-08-08T09:49:04.376Z,32.80
2022-08-08T09:52:06.375Z,33.10
2022-08-08T09:54:42.145Z,32.70
2022-08-08T09:57:17.020Z,32.90
2022-08-08T10:00:31.306Z,33.30
2022-08-08T10:02:52.378Z,33.50
2022-08-08T10:05:25.496Z,33.50
2022-08-08T10:07:59.924Z,33.80
2022-08-08T10:10:30.331Z,33.80
2022-08-08T10:13:13.906Z,34.00
2022-08-08T10:16:00.222Z,33.90
2022-08-08T10:18:29.760Z,33.80
2022-08-08T10:21:22.764Z,33.90
2022-08-08T10:23:58.935Z,34.00
2022-08-08T10:26:58.480Z,33.60
2022-08-08T10:29:24.856Z,34.00
2022-08-08T10:32:16.509Z,34.00
2022-08-08T10:34:57.120Z,33.90
2022-08-08T10:37:31.667Z,34.00
2022-08-08T10:40:12.695Z,34.00
2022-08-08T10:42:46.124Z,34.20
2022-08-08T10:45:16.516Z,34.30
2022-08-08T10:47:55.090Z,34.40
2022-08-08T10:50:24.109Z,34.60
2022-08-08T10:53:03.434Z,34.60
2022-08-08T10:55:39.849Z,35.00
2022-08-08T10:58:12.056Z,35.00
2022-08-08T11:00:52.519Z,35.30
2022-08-08T11:04:00.369Z,35.30
2022-08-08T11:06:34.355Z,35.40
2022-08-08T11:09:15.530Z,35.40
2022-08-08T11:12:06.028Z,35.60
2022-08-08T11:14:50.263Z,35.60
2022-08-08T11:17:58.194Z,35.80
2022-08-08T11:20:14.106Z,35.50
2022-08-08T11:22:50.972Z,35.70
2022-08-08T11:25:55.478Z,35.70
2022-08-08T11:28:14.821Z,35.10
2022-08-08T11:30:50.545Z,35.10
2022-08-08T11:33:23.768Z,34.90
2022-08-08T11:36:14.978Z,34.70
2022-08-08T11:38:53.965Z,34.70
2022-08-08T11:41:24.396Z,34.70
2022-08-08T11:43:54.618Z,34.50
2022-08-08T11:46:28.169Z,34.30
2022-08-08T11:49:00.783Z,34.20
2022-08-08T11:51:39.616Z,34.40
2022-08-08T11:54:26.742Z,34.00
2022-08-08T11:56:58.489Z,33.80
2022-08-08T12:00:01.738Z,33.80
2022-08-08T12:02:39.975Z,33.80
2022-08-08T12:05:12.232Z,33.80
2022-08-08T12:07:53.501Z,33.60
2022-08-08T12:10:22.847Z,33.70
2022-08-08T12:13:00.484Z,33.40
2022-08-08T12:15:30.737Z,33.20
2022-08-08T12:18:21.382Z,33.00
2022-08-08T12:20:50.563Z,33.10
2022-08-08T12:23:43.731Z,32.90
2022-08-08T12:26:28.527Z,32.70
2022-08-08T12:29:19.637Z,32.80
2022-08-08T12:32:00.505Z,32.50
2022-08-08T12:34:36.771Z,32.40
2022-08-08T12:37:08.114Z,32.30
2022-08-08T12:40:01.881Z,32.30
2022-08-08T12:42:26.460Z,32.40
2022-08-08T12:45:59.645Z,32.20
2022-08-08T12:48:10.275Z,32.00
2022-08-08T12:50:54.702Z,32.10
2022-08-08T12:53:30.294Z,32.10
2022-08-08T12:56:17.674Z,31.90
2022-08-08T12:58:48.888Z,31.80
2022-08-08T13:01:17.139Z,31.70
2022-08-08T13:03:52.677Z,31.70
2022-08-08T13:06:22.751Z,31.60
2022-08-08T13:08:56.483Z,31.40
2022-08-08T13:11:28.733Z,31.50
2022-08-08T13:14:16.195Z,31.50
2022-08-08T13:16:49.166Z,31.40
2022-08-08T13:19:20.160Z,31.40
2022-08-08T13:22:04.742Z,31.30
2022-08-08T13:24:42.425Z,31.40
2022-08-08T13:27:17.504Z,31.30
2022-08-08T13:29:53.454Z,31.30
2022-08-08T13:32:25.246Z,31.20
2022-08-08T13:34:55.587Z,31.00
2022-08-08T13:37:51.753Z,31.00
2022-08-08T13:40:17.662Z,30.80
2022-08-08T13:42:57.748Z,30.90
2022-08-08T13:45:26.525Z,30.90
2022-08-08T13:47:59.049Z,30.80
2022-08-08T13:50:38.644Z,30.80
2022-08-08T13:53:22.760Z,30.80
2022-08-08T13:55:58.819Z,30.80
2022-08-08T13:58:29.936Z,30.70
2022-08-08T14:00:57.990Z,30.70
2022-08-08T14:03:52.914Z,30.70
2022-08-08T14:06:32.418Z,30.60
2022-08-08T14:09:24.358Z,30.70
2022-08-08T14:11:51.039Z,30.60
2022-08-08T14:14:21.037Z,30.60
2022-08-08T14:16:53.405Z,30.60
2022-08-08T14:19:57.974Z,30.60
2022-08-08T14:22:23.055Z,30.60
2022-08-08T14:24:54.711Z,30.60
2022-08-08T14:27:28.871Z,30.70
2022-08-08T14:30:03.335Z,30.60
2022-08-08T14:32:47.294Z,30.50
2022-08-08T14:35:35.005Z,30.50
2022-08-08T14:38:33.392Z,30.50
2022-08-08T14:40:58.871Z,30.50
2022-08-08T14:44:02.027Z,30.60
2022-08-08T14:46:30.963Z,30.60
2022-08-08T14:49:09.479Z,30.40
2022-08-08T14:51:52.951Z,30.30
2022-08-08T14:54:29.491Z,30.30
2022-08-08T14:56:58.210Z,30.40
2022-08-08T14:59:43.668Z,30.30
2022-08-08T15:02:15.577Z,30.30
2022-08-08T15:04:45.630Z,30.30
2022-08-08T15:07:24.126Z,30.30
2022-08-08T15:10:01.504Z,30.40
2022-08-08T15:12:30.251Z,30.40
2022-08-08T15:14:58.173Z,30.30
2022-08-08T15:17:29.077Z,30.30
2022-08-08T15:19:57.461Z,30.20
2022-08-08T15:22:25.849Z,30.20
2022-08-08T15:24:54.368Z,30.20
2022-08-08T15:28:04.421Z,30.20
2022-08-08T15:30:15.161Z,30.20
2022-08-08T15:32:44.823Z,30.10
2022-08-08T15:35:16.306Z,30.20
2022-08-08T15:37:44.249Z,30.20
2022-08-08T15:40:15.470Z,30.10
2022-08-08T15:42:47.623Z,30.10
2022-08-08T15:45:17.624Z,30.10
2022-08-08T15:48:04.336Z,30.10
2022-08-08T15:50:57.829Z,30.10
2022-08-08T15:53:28.145Z,30.10
2022-08-08T15:56:01.210Z,30.20
2022-08-08T15:58:31.659Z,30.10
2022-08-08T16:00:59.775Z,30.00
2022-08-08T16:03:29.979Z,30.10
2022-08-08T16:06:01.936Z,30.10
2022-08-08T16:08:30.305Z,30.00
2022-08-08T16:13:03.268Z,30.00
2022-08-08T16:13:46.911Z,29.90
2022-08-08T16:16:18.533Z,29.80
2022-08-08T16:18:53.213Z,29.80
2022-08-08T16:21:29.014Z,29.80
2022-08-08T16:23:57.476Z,29.70
2022-08-08T16:26:33.691Z,29.70
2022-08-08T16:29:07.687Z,29.70
2022-08-08T16:31:40.178Z,29.60
2022-08-08T16:34:09.920Z,29.60
2022-08-08T16:36:40.725Z,29.50
2022-08-08T16:39:27.657Z,29.50
2022-08-08T16:42:01.474Z,29.50
2022-08-08T16:44:33.708Z,29.40
2022-08-08T16:47:18.356Z,29.40
2022-08-08T16:49:51.442Z,29.30
2022-08-08T16:55:18.385Z,29.30
2022-08-08T16:55:34.045Z,29.30
2022-08-08T16:58:15.684Z,29.20
2022-08-08T17:00:48.393Z,29.10
2022-08-08T17:03:18.142Z,29.10
2022-08-08T17:05:56.414Z,29.10
2022-08-08T17:08:24.275Z,29.00
2022-08-08T17:10:58.659Z,29.10
2022-08-08T17:13:41.109Z,29.20
2022-08-08T17:16:22.338Z,29.40
2022-08-08T17:18:52.949Z,29.50
2022-08-08T17:21:22.191Z,29.50
2022-08-08T17:24:02.015Z,29.40
2022-08-08T17:26:31.237Z,29.20
2022-08-08T17:29:04.506Z,29.10
2022-08-08T17:31:43.509Z,29.00
2022-08-08T17:34:54.212Z,28.90
2022-08-08T17:37:06.785Z,28.80
2022-08-08T17:40:03.137Z,28.70
2022-08-08T17:42:25.422Z,28.60
2022-08-08T17:44:53.304Z,28.60
2022-08-08T17:47:37.610Z,28.50
2022-08-08T17:50:09.828Z,28.40
2022-08-08T17:52:43.152Z,28.40
2022-08-08T17:56:07.097Z,28.40
2022-08-08T17:58:02.054Z,28.30
2022-08-08T18:00:31.406Z,28.30
2022-08-08T18:03:08.252Z,28.20
2022-08-08T18:05:49.799Z,28.10
2022-08-08T18:08:37.838Z,28.00
2022-08-08T18:11:15.201Z,27.90
2022-08-08T18:13:44.368Z,27.80
2022-08-08T18:16:17.117Z,27.80
2022-08-08T18:18:52.633Z,27.70
2022-08-08T18:21:35.199Z,27.70
2022-08-08T18:24:18.707Z,27.70
2022-08-08T18:26:54.210Z,27.60
2022-08-08T18:29:29.532Z,27.60
2022-08-08T18:32:03.642Z,27.60
2022-08-08T18:34:32.966Z,27.60
2022-08-08T18:37:04.689Z,27.50
2022-08-08T18:39:36.717Z,27.50
2022-08-08T18:42:11.604Z,27.40
2022-08-08T18:44:42.289Z,27.40
2022-08-08T18:47:23.999Z,27.40
2022-08-08T18:49:57.622Z,27.40
2022-08-08T18:52:30.022Z,27.50
2022-08-08T18:55:09.729Z,27.30
2022-08-08T18:57:41.397Z,27.20
2022-08-08T19:00:15.935Z,27.10
2022-08-08T19:02:55.475Z,27.00
2022-08-08T19:05:34.022Z,26.90
2022-08-08T19:08:25.862Z,26.80
2022-08-08T19:10:59.314Z,26.80
2022-08-08T19:13:53.013Z,26.70
2022-08-08T19:16:19.209Z,26.60
2022-08-08T19:18:53.019Z,26.50
2022-08-08T19:21:30.546Z,26.30
2022-08-08T19:24:05.220Z,26.20
2022-08-08T19:26:35.607Z,26.00
2022-08-08T19:29:05.899Z,26.00
2022-08-08T19:31:35.432Z,25.90
2022-08-08T19:34:36.216Z,25.70
2022-08-08T19:36:55.457Z,25.60
2022-08-08T19:39:30.714Z,25.40
2022-08-08T19:42:06.584Z,25.30
2022-08-08T19:44:45.917Z,25.20
2022-08-08T19:47:16.309Z,25.00
2022-08-08T19:50:00.683Z,24.90
2022-08-08T19:52:35.031Z,24.70
2022-08-08T19:55:08.783Z,24.60
2022-08-08T19:57:38.428Z,24.40
2022-08-08T20:00:11.227Z,24.40
2022-08-08T20:02:57.664Z,24.20
2022-08-08T20:06:15.137Z,24.00
2022-08-08T20:08:31.301Z,23.90
2022-08-08T20:11:00.612Z,23.90
2022-08-08T20:14:31.515Z,23.70
2022-08-08T20:16:18.512Z,23.70
2022-08-08T20:18:53.590Z,23.60
2022-08-08T20:21:25.541Z,23.60
2022-08-08T20:23:58.122Z,23.60
2022-08-08T20:26:27.545Z,23.50
2022-08-08T20:28:59.265Z,23.40
2022-08-08T20:31:46.905Z,23.30
2022-08-08T20:34:31.152Z,23.10
2022-08-08T20:37:00.037Z,23.00
2022-08-08T20:39:39.005Z,22.90
2022-08-08T20:42:16.008Z,22.90
2022-08-08T20:44:45.189Z,22.80
2022-08-08T20:47:23.050Z,22.70
2022-08-08T20:49:54.112Z,22.70
2022-08-08T20:52:24.219Z,22.60
2022-08-08T20:54:52.505Z,22.50
2022-08-08T20:57:20.856Z,22.40
2022-08-08T20:59:50.413Z,22.30
2022-08-08T21:02:19.832Z,22.20
2022-08-08T21:04:57.461Z,22.20
2022-08-08T21:07:31.303Z,22.10
2022-08-08T21:10:15.999Z,22.00
2022-08-08T21:12:44.669Z,22.00
2022-08-08T21:15:16.218Z,22.00
2022-08-08T21:17:45.067Z,21.90
2022-08-08T21:20:23.846Z,21.90
2022-08-08T21:23:02.670Z,21.80
2022-08-08T21:25:36.079Z,21.70
2022-08-08T21:28:13.353Z,21.60
2022-08-08T21:30:49.733Z,21.50
2022-08-08T21:33:20.547Z,21.40
2022-08-08T21:36:16.950Z,21.40
2022-08-08T21:38:36.930Z,21.40
2022-08-08T21:41:05.096Z,21.30
2022-08-08T21:43:34.733Z,21.20
2022-08-08T21:48:05.839Z,21.10
2022-08-08T21:48:54.337Z,21.10
2022-08-08T21:54:16.914Z,21.00
2022-08-08T21:54:31.634Z,21.00
2022-08-08T21:57:01.112Z,20.90
2022-08-08T22:00:03.359Z,21.00
2022-08-08T22:02:22.990Z,20.90
2022-08-08T22:04:52.391Z,20.90
2022-08-08T22:07:20.273Z,20.90
2022-08-08T22:09:55.012Z,20.90
2022-08-08T22:12:22.893Z,20.90
2022-08-08T22:14:53.784Z,20.90
2022-08-08T22:17:22.953Z,20.90
2022-08-08T22:20:12.639Z,20.80
2022-08-08T22:22:38.854Z,20.80
2022-08-08T22:25:12.356Z,20.70
2022-08-08T22:28:02.593Z,20.70
2022-08-08T22:30:33.588Z,20.60
2022-08-08T22:33:22.010Z,20.60
2022-08-08T22:36:04.982Z,20.50
2022-08-08T22:38:48.568Z,20.30
2022-08-08T22:41:21.763Z,20.30
2022-08-08T22:44:02.953Z,20.30
2022-08-08T22:46:34.245Z,20.30
2022-08-08T22:49:09.413Z,20.20
2022-08-08T22:51:46.249Z,20.10
2022-08-08T22:54:33.192Z,20.00
2022-08-08T22:57:08.716Z,19.90
2022-08-08T22:59:48.449Z,19.90
2022-08-08T23:02:28.591Z,19.80
2022-08-08T23:04:58.470Z,19.70
2022-08-08T23:07:57.401Z,19.60
2022-08-08T23:10:21.411Z,19.60
2022-08-08T23:12:55.283Z,19.60
2022-08-08T23:16:41.825Z,19.50
2022-08-08T23:18:12.843Z,19.50
2022-08-08T23:20:43.849Z,19.40
2022-08-08T23:23:13.027Z,19.40
2022-08-08T23:25:48.538Z,19.40
2022-08-08T23:28:18.864Z,19.50
2022-08-08T23:30:47.882Z,19.50
2022-08-08T23:33:20.996Z,19.40
2022-08-08T23:36:08.061Z,19.30
2022-08-08T23:38:41.917Z,19.30
2022-08-08T23:41:23.259Z,19.20
2022-08-08T23:43:57.151Z,19.30
2022-08-08T23:49:07.122Z,19.10
2022-08-08T23:49:15.431Z,19.10
2022-08-08T23:52:06.035Z,19.00
2022-08-08T23:54:41.729Z,19.00
2022-08-08T23:57:27.824Z,18.90
